Time;durP1;ratioP1;P1;durP2;ratioP2;P2;SDS_P1;SDS_P2;PMS_P1;PMS_P2;Temp;Humidity;BMP_temperature;BMP_pressure;BME280_temperature;BME280_humidity;BME280_pressure;Samples;Min_cycle;Max_cycle;Signal;HPM_P1;HPM_P2
2022/06/22 00:01:42;;;;;;;5.50;5.00;;;;;;;;;;5012573;28;20203;-91
2022/06/22 00:04:20;;;;;;;5.25;4.88;;;;;;;;;;5012481;28;20305;-92
2022/06/22 00:07:06;;;;;;;5.00;4.65;;;;;;;;;;5057023;22;20225;-90
2022/06/22 00:09:51;;;;;;;4.93;4.53;;;;;;;;;;5032845;28;20220;-91
2022/06/22 00:12:34;;;;;;;5.40;4.95;;;;;;;;;;5031739;28;20206;-91
2022/06/22 00:15:21;;;;;;;5.80;5.10;;;;;;;;;;5030512;28;20209;-89
2022/06/22 00:17:51;;;;;;;5.85;4.90;;;;;;;;;;5005393;28;20202;-91
2022/06/22 00:20:40;;;;;;;5.82;5.32;;;;;;;;;;5010381;28;20207;-91
2022/06/22 00:23:29;;;;;;;5.28;4.88;;;;;;;;;;5004438;28;20248;-92
2022/06/22 00:26:08;;;;;;;5.53;5.07;;;;;;;;;;5012279;28;20318;-90
2022/06/22 00:29:02;;;;;;;6.60;4.82;;;;;;;;;;5011717;28;20198;-91
2022/06/22 00:31:45;;;;;;;4.82;4.45;;;;;;;;;;5005305;28;20226;-90
2022/06/22 00:34:35;;;;;;;4.82;4.43;;;;;;;;;;5012308;28;20198;-91
2022/06/22 00:52:05;;;;;;;;;;;;;;;;;;;;;
2022/06/22 00:54:44;;;;;;;5.68;5.18;;;;;;;;;;5032390;28;20193;-94
2022/06/22 00:57:25;;;;;;;5.35;4.85;;;;;;;;;;5027501;28;20244;-95
2022/06/22 01:00:22;;;;;;;5.15;4.78;;;;;;;;;;5021955;28;20198;-95
2022/06/22 07:06:21;;;;;;;5.60;5.05;;;;;;;;;;4991465;28;20206;-91
2022/06/22 07:12:08;;;;;;;8.35;5.13;;;;;;;;;;4975602;28;20202;-89
2022/06/22 07:28:07;;;;;;;4.95;4.65;;;;;;;;;;4989343;28;20231;-88
2022/06/22 07:30:36;;;;;;;5.25;4.75;;;;;;;;;;4990350;28;20288;-89
2022/06/22 11:35:05;;;;;;;6.25;5.60;;;;;;;;;;4961316;28;20219;-92
2022/06/22 11:38:05;;;;;;;6.60;5.85;;;;;;;;;;4958185;28;20246;-92
2022/06/22 11:41:17;;;;;;;5.80;5.28;;;;;;;;;;4972472;28;20658;-91
2022/06/22 11:44:25;;;;;;;6.68;5.85;;;;;;;;;;4970289;28;20231;-93
2022/06/22 11:47:04;;;;;;;6.38;5.18;;;;;;;;;;4970138;28;20314;-92
2022/06/22 12:01:52;;;;;;;5.78;5.28;;;;;;;;;;5014222;28;20210;-92
2022/06/22 12:04:42;;;;;;;6.53;5.03;;;;;;;;;;5007432;28;20222;-93
2022/06/22 12:07:24;;;;;;;5.75;5.22;;;;;;;;;;5008873;28;20215;-91
2022/06/22 12:10:02;;;;;;;7.15;5.53;;;;;;;;;;5008281;28;20203;-91
2022/06/22 12:12:43;;;;;;;6.65;5.50;;;;;;;;;;5013069;28;20305;-92
2022/06/22 12:15:18;;;;;;;7.13;5.95;;;;;;;;;;5006387;28;20293;-90
2022/06/22 12:17:59;;;;;;;6.03;5.28;;;;;;;;;;5016902;28;20285;-91
2022/06/22 12:20:37;;;;;;;8.68;6.53;;;;;;;;;;5010432;28;20241;-90
2022/06/22 12:23:13;;;;;;;6.72;5.70;;;;;;;;;;5012604;28;20221;-90
2022/06/22 12:25:51;;;;;;;6.75;6.03;;;;;;;;;;5010195;28;20219;-92
2022/06/22 12:28:30;;;;;;;6.90;6.03;;;;;;;;;;5008393;28;20221;-90
2022/06/22 12:31:03;;;;;;;7.38;6.22;;;;;;;;;;5010062;28;20260;-91
2022/06/22 12:33:50;;;;;;;9.48;6.60;;;;;;;;;;5011702;28;20719;-90
2022/06/22 12:36:28;;;;;;;7.10;6.00;;;;;;;;;;5012812;28;20229;-91
2022/06/22 14:15:50;;;;;;;8.15;7.45;;;;;;;;;;4987226;28;20207;-93
